createdAt,value
2023-05-03T00:00:25.253Z,101181.41
2023-05-03T00:00:56.686Z,101181.06
2023-05-03T00:01:28.180Z,101180.00
2023-05-03T00:01:59.655Z,101182.22
2023-05-03T00:02:31.241Z,101180.34
2023-05-03T00:03:02.937Z,101177.75
2023-05-03T00:03:34.351Z,101181.88
2023-05-03T00:04:05.718Z,101179.16
2023-05-03T00:04:37.115Z,101186.47
2023-05-03T00:05:08.591Z,101184.94
2023-05-03T00:05:40.140Z,101179.28
2023-05-03T00:06:11.688Z,101176.56
2023-05-03T00:06:43.239Z,101178.22
2023-05-03T00:07:14.732Z,101178.00
2023-05-03T00:07:46.144Z,101179.69
2023-05-03T00:08:17.581Z,101181.63
2023-05-03T00:08:49.066Z,101180.22
2023-05-03T00:09:20.489Z,101179.63
2023-05-03T00:09:51.888Z,101175.03
2023-05-03T00:10:23.310Z,101175.84
2023-05-03T00:10:54.716Z,101177.28
2023-05-03T00:11:26.158Z,101178.56
2023-05-03T00:11:57.596Z,101172.44
2023-05-03T00:12:29.010Z,101172.91
2023-05-03T00:13:00.456Z,101177.03
2023-05-03T00:13:31.885Z,101177.50
2023-05-03T00:14:03.398Z,101175.16
2023-05-03T00:14:34.813Z,101170.78
2023-05-03T00:15:06.253Z,101172.31
2023-05-03T00:15:37.686Z,101169.38
2023-05-03T00:16:09.087Z,101173.75
2023-05-03T00:16:40.520Z,101173.16
2023-05-03T00:17:12.073Z,101175.28
2023-05-03T00:17:43.694Z,101177.28
2023-05-03T00:18:15.129Z,101172.31
2023-05-03T00:18:47.787Z,101177.88
2023-05-03T00:19:30.585Z,101176.22
2023-05-03T00:20:03.278Z,101174.44
2023-05-03T00:20:34.886Z,101176.91
2023-05-03T00:21:06.415Z,101170.66
2023-05-03T00:21:38.316Z,101178.81
2023-05-03T00:22:09.823Z,101176.44
2023-05-03T00:22:41.237Z,101164.06
2023-05-03T00:23:12.727Z,101174.31
2023-05-03T00:23:44.178Z,101169.94
2023-05-03T00:24:15.664Z,101169.94
2023-05-03T00:24:47.192Z,101168.31
2023-05-03T00:25:18.625Z,101161.34
2023-05-03T00:25:50.027Z,101156.53
2023-05-03T00:26:21.405Z,101165.47
2023-05-03T00:26:52.870Z,101158.19
2023-05-03T00:27:24.289Z,101169.38
2023-05-03T00:27:55.678Z,101165.47
2023-05-03T00:28:27.147Z,101166.91
2023-05-03T00:28:58.617Z,101166.78
2023-05-03T00:29:30.119Z,101168.44
2023-05-03T00:30:02.021Z,101176.31
2023-05-03T00:30:33.609Z,101174.22
2023-05-03T00:31:05.057Z,101167.50
2023-05-03T00:31:36.603Z,101167.25
2023-05-03T00:32:07.979Z,101168.91
2023-05-03T00:32:39.458Z,101165.25
2023-05-03T00:33:11.117Z,101170.66
2023-05-03T00:33:42.613Z,101173.75
2023-05-03T00:34:14.021Z,101165.59
2023-05-03T00:34:45.443Z,101166.91
2023-05-03T00:35:16.961Z,101163.50
2023-05-03T00:35:48.359Z,101168.09
2023-05-03T00:36:19.792Z,101165.25
2023-05-03T00:36:51.183Z,101165.13
2023-05-03T00:37:22.616Z,101163.72
2023-05-03T00:37:54.076Z,101165.94
2023-05-03T00:38:25.504Z,101163.84
2023-05-03T00:38:57.003Z,101164.44
2023-05-03T00:39:28.413Z,101159.13
2023-05-03T00:39:59.839Z,101162.78
2023-05-03T00:40:31.373Z,101161.72
2023-05-03T00:41:02.931Z,101158.19
2023-05-03T00:41:34.312Z,101170.66
2023-05-03T00:42:05.717Z,101164.66
2023-05-03T00:42:37.152Z,101169.84
2023-05-03T00:43:08.670Z,101156.66
2023-05-03T00:43:40.114Z,101164.78
2023-05-03T00:44:11.716Z,101165.25
2023-05-03T00:44:43.123Z,101159.47
2023-05-03T00:45:14.541Z,101162.88
2023-05-03T00:45:45.999Z,101163.13
2023-05-03T00:46:17.857Z,101164.53
2023-05-03T00:46:49.702Z,101159.25
2023-05-03T00:47:21.399Z,101163.47
2023-05-03T00:47:52.998Z,101157.00
2023-05-03T00:48:24.402Z,101158.88
2023-05-03T00:48:55.860Z,101154.88
2023-05-03T00:49:27.335Z,101164.31
2023-05-03T00:49:58.722Z,101159.34
2023-05-03T00:50:30.152Z,101162.88
2023-05-03T00:51:01.556Z,101165.34
2023-05-03T00:51:33.037Z,101160.03
2023-05-03T00:52:04.606Z,101160.88
2023-05-03T00:52:36.109Z,101154.97
2023-05-03T00:53:07.507Z,101155.81
2023-05-03T00:53:38.952Z,101152.03
2023-05-03T00:54:10.410Z,101151.09
2023-05-03T00:54:42.047Z,101152.38
2023-05-03T00:55:13.528Z,101145.66
2023-05-03T00:55:44.967Z,101153.22
2023-05-03T00:56:16.413Z,101154.28
2023-05-03T00:56:51.519Z,101150.03
2023-05-03T00:57:24.304Z,101153.44
2023-05-03T00:57:55.978Z,101154.28
2023-05-03T00:58:27.448Z,101157.56
2023-05-03T00:58:59.012Z,101153.22
2023-05-03T00:59:30.508Z,101152.75
2023-05-03T01:00:02.255Z,101157.94
2023-05-03T01:00:33.781Z,101155.91
2023-05-03T01:01:05.175Z,101148.38
2023-05-03T01:01:36.631Z,101159.00
2023-05-03T01:02:08.361Z,101150.84
2023-05-03T01:02:40.118Z,101157.94
2023-05-03T01:03:11.703Z,101163.34
2023-05-03T01:03:43.250Z,101151.69
2023-05-03T01:04:14.716Z,101156.75
2023-05-03T01:04:46.139Z,101155.31
2023-05-03T01:05:17.558Z,101155.78
2023-05-03T01:05:48.990Z,101155.44
2023-05-03T01:06:20.477Z,101157.78
2023-05-03T01:06:52.084Z,101160.97
2023-05-03T01:07:23.631Z,101159.78
2023-05-03T01:07:55.073Z,101156.03
2023-05-03T01:08:26.518Z,101159.44
2023-05-03T01:08:57.970Z,101162.28
2023-05-03T01:09:29.368Z,101163.44
2023-05-03T01:10:01.042Z,101172.47
2023-05-03T01:10:32.603Z,101166.00
2023-05-03T01:11:04.037Z,101168.63
2023-05-03T01:11:35.476Z,101170.50
2023-05-03T01:12:06.967Z,101165.53
2023-05-03T01:12:38.416Z,101177.81
2023-05-03T01:13:09.889Z,101167.44
2023-05-03T01:13:41.311Z,101173.66
2023-05-03T01:14:12.798Z,101173.22
2023-05-03T01:14:44.499Z,101178.63
2023-05-03T01:15:16.052Z,101174.28
2023-05-03T01:15:47.512Z,101174.50
2023-05-03T01:16:19.139Z,101178.41
2023-05-03T01:16:50.570Z,101175.09
2023-05-03T01:17:22.020Z,101176.75
2023-05-03T01:17:53.537Z,101179.69
2023-05-03T01:18:25.067Z,101178.41
2023-05-03T01:18:56.504Z,101179.47
2023-05-03T01:19:28.086Z,101180.16
2023-05-03T01:19:59.629Z,101182.84
2023-05-03T01:20:31.118Z,101179.91
2023-05-03T01:21:02.517Z,101186.63
2023-05-03T01:21:34.026Z,101187.00
2023-05-03T01:22:05.554Z,101178.72
2023-05-03T01:22:36.950Z,101177.44
2023-05-03T01:23:08.373Z,101187.44
2023-05-03T01:23:39.752Z,101181.22
2023-05-03T01:24:11.154Z,101180.75
2023-05-03T01:24:42.584Z,101176.38
2023-05-03T01:25:14.005Z,101176.16
2023-05-03T01:25:45.449Z,101178.03
2023-05-03T01:26:16.859Z,101181.34
2023-05-03T01:26:48.308Z,101172.72
2023-05-03T01:27:19.753Z,101174.13
2023-05-03T01:27:51.131Z,101175.66
2023-05-03T01:28:22.580Z,101181.53
2023-05-03T01:28:53.994Z,101175.88
2023-05-03T01:29:25.442Z,101185.44
2023-05-03T01:29:56.895Z,101178.97
2023-05-03T01:30:28.273Z,101182.00
2023-05-03T01:30:59.681Z,101176.81
2023-05-03T01:31:31.080Z,101181.31
2023-05-03T01:32:02.616Z,101178.97
2023-05-03T01:32:34.243Z,101184.50
2023-05-03T01:33:05.694Z,101179.41
2023-05-03T01:33:37.455Z,101177.66
2023-05-03T01:34:08.853Z,101177.91
2023-05-03T01:34:40.236Z,101179.31
2023-05-03T01:35:11.684Z,101184.06
2023-05-03T01:35:43.114Z,101177.44
2023-05-03T01:36:14.713Z,101177.44
2023-05-03T01:36:46.186Z,101175.88
2023-05-03T01:37:17.644Z,101173.19
2023-05-03T01:37:49.123Z,101177.06
2023-05-03T01:38:20.528Z,101182.03
2023-05-03T01:38:51.963Z,101179.91
2023-05-03T01:39:23.352Z,101174.72
2023-05-03T01:39:54.754Z,101177.44
2023-05-03T01:40:26.210Z,101171.28
2023-05-03T01:40:57.652Z,101174.13
2023-05-03T01:41:29.043Z,101176.03
2023-05-03T01:42:00.439Z,101174.38
2023-05-03T01:42:31.853Z,101178.22
2023-05-03T01:43:03.296Z,101182.13
2023-05-03T01:43:34.727Z,101184.72
2023-05-03T01:44:06.137Z,101183.41
2023-05-03T01:44:37.580Z,101181.06
2023-05-03T01:45:09.000Z,101181.22
2023-05-03T01:45:40.454Z,101182.84
2023-05-03T01:46:11.874Z,101182.50
2023-05-03T01:46:43.581Z,101181.66
2023-05-03T01:47:15.318Z,101185.44
2023-05-03T01:47:46.899Z,101181.81
2023-05-03T01:48:18.341Z,101178.50
2023-05-03T01:48:49.757Z,101182.03
2023-05-03T01:49:21.191Z,101172.13
2023-05-03T01:49:52.638Z,101182.13
2023-05-03T01:50:24.113Z,101181.75
2023-05-03T01:50:55.579Z,101176.56
2023-05-03T01:51:26.976Z,101183.78
2023-05-03T01:51:58.360Z,101177.19
2023-05-03T01:52:29.925Z,101179.06
2023-05-03T01:53:01.322Z,101183.06
2023-05-03T01:53:32.758Z,101192.25
2023-05-03T01:54:04.162Z,101183.41
2023-05-03T01:54:35.555Z,101187.78
2023-05-03T01:55:06.954Z,101193.88
2023-05-03T01:55:38.377Z,101186.72
2023-05-03T01:56:09.855Z,101188.84
2023-05-03T01:56:41.291Z,101187.41
2023-05-03T01:57:12.732Z,101191.53
2023-05-03T01:57:44.205Z,101192.25
2023-05-03T01:58:15.674Z,101196.00
2023-05-03T01:58:47.120Z,101194.72
2023-05-03T01:59:18.558Z,101189.28
2023-05-03T01:59:49.963Z,101193.53
2023-05-03T02:00:21.382Z,101194.72
2023-05-03T02:00:52.841Z,101192.13
2023-05-03T02:01:24.358Z,101184.47
2023-05-03T02:01:55.806Z,101190.03
2023-05-03T02:02:27.305Z,101195.91
2023-05-03T02:02:58.826Z,101198.03
2023-05-03T02:03:30.270Z,101193.88
2023-05-03T02:04:01.811Z,101194.81
2023-05-03T02:04:33.289Z,101199.03
2023-05-03T02:05:04.739Z,101190.44
2023-05-03T02:05:36.177Z,101201.28
2023-05-03T02:06:07.602Z,101201.66
2023-05-03T02:06:39.126Z,101204.00
2023-05-03T02:07:10.583Z,101206.59
2023-05-03T02:07:41.999Z,101197.06
2023-05-03T02:08:13.451Z,101199.75
2023-05-03T02:08:44.861Z,101198.94
2023-05-03T02:09:16.297Z,101200.34
2023-05-03T02:09:47.755Z,101201.19
2023-05-03T02:10:19.245Z,101199.75
2023-05-03T02:10:50.788Z,101203.22
2023-05-03T02:11:22.239Z,101199.31
2023-05-03T02:11:53.648Z,101209.53
2023-05-03T02:12:25.119Z,101206.16
2023-05-03T02:12:56.528Z,101202.94
2023-05-03T02:13:28.177Z,101210.59
2023-05-03T02:13:59.632Z,101211.78
2023-05-03T02:14:31.040Z,101211.50
2023-05-03T02:15:02.447Z,101207.97
2023-05-03T02:15:33.874Z,101214.22
2023-05-03T02:16:05.247Z,101208.94
2023-05-03T02:16:36.636Z,101206.38
2023-05-03T02:17:08.610Z,101208.72
2023-05-03T02:17:40.183Z,101209.53
2023-05-03T02:18:11.625Z,101207.28
2023-05-03T02:18:43.167Z,101212.13
2023-05-03T02:19:14.583Z,101204.34
2023-05-03T02:19:45.987Z,101210.47
2023-05-03T02:20:17.609Z,101210.69
2023-05-03T02:20:49.042Z,101212.25
2023-05-03T02:21:20.414Z,101208.59
2023-05-03T02:21:51.854Z,101207.38
2023-05-03T02:22:23.270Z,101205.38
2023-05-03T02:22:54.722Z,101205.81
2023-05-03T02:23:26.116Z,101203.84
2023-05-03T02:23:57.605Z,101205.59
2023-05-03T02:24:29.007Z,101208.53
2023-05-03T02:25:00.442Z,101207.69
2023-05-03T02:25:31.900Z,101205.50
2023-05-03T02:26:03.336Z,101204.44
2023-05-03T02:26:34.788Z,101205.72
2023-05-03T02:27:06.219Z,101204.81
2023-05-03T02:27:37.687Z,101210.31
2023-05-03T02:28:09.106Z,101207.84
2023-05-03T02:28:40.526Z,101211.75
2023-05-03T02:29:11.997Z,101215.81
2023-05-03T02:29:43.418Z,101210.78
2023-05-03T02:30:14.923Z,101208.06
2023-05-03T02:30:46.356Z,101208.66
2023-05-03T02:31:17.826Z,101208.91
2023-05-03T02:31:49.313Z,101211.16
2023-05-03T02:32:20.760Z,101205.50
2023-05-03T02:32:52.195Z,101215.97
2023-05-03T02:33:23.686Z,101211.84
2023-05-03T02:33:55.128Z,101211.00
2023-05-03T02:34:26.561Z,101218.22
2023-05-03T02:34:58.023Z,101212.44
2023-05-03T02:35:29.493Z,101215.28
2023-05-03T02:36:00.898Z,101218.81
2023-05-03T02:36:32.345Z,101220.09
2023-05-03T02:37:03.734Z,101225.50
2023-05-03T02:37:35.156Z,101211.97
2023-05-03T02:38:06.586Z,101218.44
2023-05-03T02:38:37.993Z,101226.81
2023-05-03T02:39:09.436Z,101217.25
2023-05-03T02:39:40.991Z,101223.72
2023-05-03T02:40:12.575Z,101219.72
2023-05-03T02:40:44.001Z,101219.13
2023-05-03T02:41:15.397Z,101215.97
2023-05-03T02:41:46.812Z,101216.19
2023-05-03T02:42:18.391Z,101214.91
2023-05-03T02:42:49.824Z,101223.84
2023-05-03T02:43:21.310Z,101219.25
2023-05-03T02:43:52.758Z,101222.56
2023-05-03T02:44:24.177Z,101220.19
2023-05-03T02:44:55.650Z,101224.19
2023-05-03T02:45:27.121Z,101222.78
2023-05-03T02:45:58.573Z,101225.84
2023-05-03T02:46:30.089Z,101224.78
2023-05-03T02:47:01.487Z,101222.44
2023-05-03T02:47:32.971Z,101220.19
2023-05-03T02:48:04.489Z,101230.19
2023-05-03T02:48:36.006Z,101222.91
2023-05-03T02:49:07.426Z,101221.13
2023-05-03T02:49:38.837Z,101225.50
2023-05-03T02:50:10.287Z,101226.78
2023-05-03T02:50:41.708Z,101223.34
2023-05-03T02:51:13.117Z,101228.88
2023-05-03T02:51:44.615Z,101220.41
2023-05-03T02:52:16.051Z,101223.13
2023-05-03T02:52:47.430Z,101224.44
2023-05-03T02:53:18.967Z,101224.44
2023-05-03T02:53:50.374Z,101226.53
2023-05-03T02:54:21.795Z,101222.19
2023-05-03T02:54:53.239Z,101222.78
2023-05-03T02:55:24.752Z,101214.53
2023-05-03T02:55:56.178Z,101222.06
2023-05-03T02:56:27.698Z,101227.97
2023-05-03T02:56:59.115Z,101215.34
2023-05-03T02:57:30.573Z,101213.22
2023-05-03T02:58:02.037Z,101217.72
2023-05-03T02:58:33.492Z,101226.53
2023-05-03T02:59:04.912Z,101222.28
2023-05-03T02:59:36.335Z,101225.00
2023-05-03T03:00:07.777Z,101220.19
2023-05-03T03:00:39.256Z,101223.59
2023-05-03T03:01:10.717Z,101215.72
2023-05-03T03:01:42.189Z,101218.19
2023-05-03T03:02:13.602Z,101220.78
2023-05-03T03:02:45.064Z,101215.75
2023-05-03T03:03:16.602Z,101218.31
2023-05-03T03:03:48.227Z,101219.59
2023-05-03T03:04:19.636Z,101219.59
2023-05-03T03:04:51.078Z,101216.66
2023-05-03T03:05:22.513Z,101213.50
2023-05-03T03:05:54.029Z,101218.06
2023-05-03T03:06:25.483Z,101214.69
2023-05-03T03:06:57.040Z,101219.50
2023-05-03T03:07:28.489Z,101218.22
2023-05-03T03:07:59.893Z,101220.31
2023-05-03T03:08:31.343Z,101225.75
2023-05-03T03:09:02.817Z,101224.09
2023-05-03T03:09:34.271Z,101215.75
2023-05-03T03:10:05.784Z,101218.22
2023-05-03T03:10:37.210Z,101217.63
2023-05-03T03:11:08.615Z,101211.84
2023-05-03T03:11:40.057Z,101219.28
2023-05-03T03:12:11.515Z,101213.84
2023-05-03T03:12:42.960Z,101224.69
2023-05-03T03:13:14.394Z,101218.91
2023-05-03T03:13:45.806Z,101213.25
2023-05-03T03:14:17.219Z,101220.25
2023-05-03T03:14:48.672Z,101222.56
2023-05-03T03:15:20.081Z,101215.41
2023-05-03T03:15:51.569Z,101217.75
2023-05-03T03:16:23.091Z,101212.19
2023-05-03T03:16:54.604Z,101216.56
2023-05-03T03:17:26.026Z,101220.94
2023-05-03T03:17:57.651Z,101211.75
2023-05-03T03:18:29.348Z,101207.75
2023-05-03T03:19:00.792Z,101214.00
2023-05-03T03:19:32.190Z,101215.97
2023-05-03T03:20:03.895Z,101207.38
2023-05-03T03:20:35.525Z,101212.28
2023-05-03T03:21:06.986Z,101211.47
2023-05-03T03:21:38.408Z,101213.25
2023-05-03T03:22:09.908Z,101210.31
2023-05-03T03:22:41.345Z,101213.84
2023-05-03T03:23:12.761Z,101213.94
2023-05-03T03:23:44.222Z,101203.25
2023-05-03T03:24:15.643Z,101207.38
2023-05-03T03:24:47.092Z,101205.97
2023-05-03T03:25:18.533Z,101205.38
2023-05-03T03:25:49.955Z,101199.72
2023-05-03T03:26:21.363Z,101200.53
2023-05-03T03:26:52.780Z,101211.38
2023-05-03T03:27:24.252Z,101203.72
2023-05-03T03:27:55.707Z,101211.84
2023-05-03T03:28:27.135Z,101204.53
2023-05-03T03:28:58.590Z,101209.50
2023-05-03T03:29:30.046Z,101210.91
2023-05-03T03:30:01.917Z,101204.00
2023-05-03T03:30:33.546Z,101202.34
2023-05-03T03:31:05.075Z,101205.41
2023-05-03T03:31:36.573Z,101210.91
2023-05-03T03:32:08.021Z,101205.50
2023-05-03T03:32:39.280Z,101207.63
2023-05-03T03:33:10.556Z,101207.97
2023-05-03T03:33:41.769Z,101206.56
2023-05-03T03:34:12.939Z,101207.63
2023-05-03T03:34:44.114Z,101203.16
2023-05-03T03:35:15.322Z,101205.03
2023-05-03T03:35:46.521Z,101203.38
2023-05-03T03:36:17.741Z,101208.81
2023-05-03T03:36:48.927Z,101205.19
2023-05-03T03:37:20.158Z,101202.69
2023-05-03T03:37:51.373Z,101207.06
2023-05-03T03:38:22.539Z,101207.75
2023-05-03T03:38:53.700Z,101201.59
2023-05-03T03:39:24.880Z,101203.84
2023-05-03T03:39:56.041Z,101203.16
2023-05-03T03:40:27.201Z,101197.97
2023-05-03T03:40:58.386Z,101200.69
2023-05-03T03:41:29.554Z,101198.44
2023-05-03T03:42:00.804Z,101200.31
2023-05-03T03:42:32.190Z,101204.91
2023-05-03T03:43:03.638Z,101203.63
2023-05-03T03:43:35.034Z,101201.06
2023-05-03T03:44:06.419Z,101198.44
2023-05-03T03:44:37.808Z,101203.63
2023-05-03T03:45:09.229Z,101203.38
2023-05-03T03:45:40.590Z,101203.84
2023-05-03T03:46:11.986Z,101205.28
2023-05-03T03:46:43.422Z,101198.28
2023-05-03T03:47:14.977Z,101200.41
2023-05-03T03:47:46.476Z,101205.38
2023-05-03T03:48:18.038Z,101199.25
2023-05-03T03:48:49.457Z,101198.91
2023-05-03T03:49:20.963Z,101200.69
2023-05-03T03:49:52.303Z,101203.16
2023-05-03T03:50:23.691Z,101199.50
2023-05-03T03:50:55.073Z,101199.50
2023-05-03T03:51:26.503Z,101197.84
2023-05-03T03:51:58.002Z,101197.25
2023-05-03T03:52:29.391Z,101197.00
2023-05-03T03:53:00.876Z,101200.63
2023-05-03T03:53:32.269Z,101201.38
2023-05-03T03:54:03.613Z,101197.59
2023-05-03T03:54:34.996Z,101204.00
2023-05-03T03:55:06.399Z,101201.38
2023-05-03T03:55:37.816Z,101204.44
2023-05-03T03:56:09.194Z,101199.03
2023-05-03T03:56:40.621Z,101203.03
2023-05-03T03:57:12.040Z,101199.94
2023-05-03T03:57:43.438Z,101197.38
2023-05-03T03:58:14.894Z,101202.56
2023-05-03T03:58:46.259Z,101196.56
2023-05-03T03:59:17.613Z,101202.50
2023-05-03T03:59:49.025Z,101192.41
2023-05-03T04:00:20.392Z,101203.47
2023-05-03T04:00:51.770Z,101199.56
2023-05-03T04:01:23.116Z,101196.28
2023-05-03T04:01:54.541Z,101202.06
2023-05-03T04:02:26.003Z,101200.41
2023-05-03T04:02:57.530Z,101200.91
2023-05-03T04:03:29.098Z,101201.59
2023-05-03T04:04:00.626Z,101192.88
2023-05-03T04:04:32.183Z,101196.63
2023-05-03T04:05:03.644Z,101198.19
2023-05-03T04:05:35.035Z,101200.63
2023-05-03T04:06:06.498Z,101198.66
2023-05-03T04:06:37.932Z,101196.03
2023-05-03T04:07:09.354Z,101201.22
2023-05-03T04:07:40.776Z,101206.19
2023-05-03T04:08:12.140Z,101195.25
2023-05-03T04:08:43.655Z,101195.72
2023-05-03T04:09:15.087Z,101199.03
2023-05-03T04:09:46.450Z,101201.97
2023-05-03T04:10:17.824Z,101199.03
2023-05-03T04:10:49.171Z,101200.78
2023-05-03T04:11:20.518Z,101195.34
2023-05-03T04:11:51.989Z,101197.75
2023-05-03T04:12:23.355Z,101199.03
2023-05-03T04:12:54.751Z,101202.78
2023-05-03T04:13:26.124Z,101199.25
2023-05-03T04:13:57.571Z,101195.00
2023-05-03T04:14:28.972Z,101197.47
2023-05-03T04:15:00.400Z,101195.50
2023-05-03T04:15:31.819Z,101197.38
2023-05-03T04:16:04.795Z,101192.31
2023-05-03T04:16:36.428Z,101190.31
2023-05-03T04:17:07.871Z,101198.44
2023-05-03T04:17:39.292Z,101192.78
2023-05-03T04:18:10.798Z,101202.44
2023-05-03T04:18:42.205Z,101193.84
2023-05-03T04:19:13.896Z,101194.44
2023-05-03T04:19:45.296Z,101192.56
2023-05-03T04:20:16.695Z,101197.16
2023-05-03T04:20:48.070Z,101201.75
2023-05-03T04:21:19.456Z,101187.84
2023-05-03T04:21:50.850Z,101191.38
2023-05-03T04:22:22.269Z,101196.19
2023-05-03T04:22:53.860Z,101190.53
2023-05-03T04:23:25.300Z,101188.06
2023-05-03T04:23:56.697Z,101187.38
2023-05-03T04:24:28.185Z,101194.06
2023-05-03T04:24:59.624Z,101196.41
2023-05-03T04:25:31.046Z,101190.16
2023-05-03T04:26:03.354Z,101191.59
2023-05-03T04:26:36.298Z,101193.69
2023-05-03T04:27:07.778Z,101194.75
2023-05-03T04:27:39.179Z,101187.91
2023-05-03T04:28:10.564Z,101180.38
2023-05-03T04:28:41.968Z,101185.34
2023-05-03T04:29:13.437Z,101187.38
2023-05-03T04:29:44.899Z,101196.19
2023-05-03T04:30:16.279Z,101192.19
2023-05-03T04:30:47.742Z,101183.59
2023-05-03T04:31:19.211Z,101190.53
2023-05-03T04:31:50.624Z,101192.78
2023-05-03T04:32:22.035Z,101184.88
2023-05-03T04:32:53.488Z,101180.75
2023-05-03T04:33:24.914Z,101185.94
2023-05-03T04:33:56.284Z,101183.69
2023-05-03T04:34:27.670Z,101185.13
2023-05-03T04:34:59.009Z,101178.66
2023-05-03T04:35:30.370Z,101181.59
2023-05-03T04:36:01.726Z,101184.53
2023-05-03T04:36:33.188Z,101179.69
2023-05-03T04:37:04.619Z,101183.34
2023-05-03T04:37:36.033Z,101180.38
2023-05-03T04:38:07.677Z,101181.34
2023-05-03T04:38:39.084Z,101182.03
2023-05-03T04:39:10.463Z,101175.31
2023-05-03T04:39:41.829Z,101180.84
2023-05-03T04:40:13.263Z,101175.31
2023-05-03T04:40:44.637Z,101178.72
2023-05-03T04:41:16.282Z,101178.03
2023-05-03T04:41:47.659Z,101179.47
2023-05-03T04:42:19.047Z,101170.63
2023-05-03T04:42:50.458Z,101178.75
2023-05-03T04:43:21.867Z,101179.34
2023-05-03T04:43:53.295Z,101173.56
2023-05-03T04:44:24.810Z,101173.81
2023-05-03T04:44:56.189Z,101173.31
2023-05-03T04:45:27.658Z,101168.84
2023-05-03T04:45:59.034Z,101175.44
2023-05-03T04:46:30.484Z,101181.94
2023-05-03T04:47:01.953Z,101184.66
2023-05-03T04:47:33.365Z,101181.44
2023-05-03T04:48:04.788Z,101173.31
2023-05-03T04:48:36.210Z,101182.28
2023-05-03T04:49:07.588Z,101173.22
2023-05-03T04:49:38.988Z,101173.22
2023-05-03T04:50:10.408Z,101178.41
2023-05-03T04:50:41.862Z,101176.03
2023-05-03T04:51:13.314Z,101171.56
2023-05-03T04:51:44.713Z,101174.88
2023-05-03T04:52:16.085Z,101175.34
2023-05-03T04:52:47.459Z,101170.75
2023-05-03T04:53:18.872Z,101173.31
2023-05-03T04:53:50.236Z,101176.53
2023-05-03T04:54:21.644Z,101170.28
2023-05-03T04:54:52.981Z,101170.84
2023-05-03T04:55:24.470Z,101174.75
2023-05-03T04:55:55.890Z,101173.31
2023-05-03T04:56:27.240Z,101173.22
2023-05-03T04:56:58.606Z,101171.81
2023-05-03T04:57:30.013Z,101168.50
2023-05-03T04:58:01.397Z,101168.97
2023-05-03T04:58:32.806Z,101174.88
2023-05-03T04:59:04.258Z,101172.84
2023-05-03T04:59:35.639Z,101171.09
2023-05-03T05:00:07.088Z,101173.31
2023-05-03T05:00:38.570Z,101174.97
2023-05-03T05:01:10.037Z,101173.91
2023-05-03T05:01:41.527Z,101177.69
2023-05-03T05:02:12.956Z,101181.81
2023-05-03T05:02:44.371Z,101180.63
2023-05-03T05:03:15.866Z,101185.09
2023-05-03T05:03:47.429Z,101187.09
2023-05-03T05:04:18.870Z,101176.75
2023-05-03T05:04:50.259Z,101183.00
2023-05-03T05:05:21.632Z,101181.69
2023-05-03T05:05:52.983Z,101185.09
2023-05-03T05:06:24.495Z,101184.06
2023-05-03T05:06:56.158Z,101180.84
2023-05-03T05:07:27.637Z,101179.47
2023-05-03T05:07:59.042Z,101181.34
2023-05-03T05:08:30.414Z,101182.03
2023-05-03T05:09:01.831Z,101175.44
2023-05-03T05:09:33.228Z,101179.78
2023-05-03T05:10:04.964Z,101177.91
2023-05-03T05:10:36.525Z,101183.09
2023-05-03T05:11:07.921Z,101182.50
2023-05-03T05:11:39.347Z,101174.97
2023-05-03T05:12:10.730Z,101188.63
2023-05-03T05:12:42.102Z,101184.38
2023-05-03T05:13:13.478Z,101184.16
2023-05-03T05:13:44.918Z,101183.81
2023-05-03T05:14:16.293Z,101181.56
2023-05-03T05:14:47.661Z,101188.63
2023-05-03T05:15:19.030Z,101185.44
2023-05-03T05:15:50.415Z,101195.09
2023-05-03T05:16:21.883Z,101186.97
2023-05-03T05:16:53.516Z,101186.88
2023-05-03T05:17:24.986Z,101191.94
2023-05-03T05:17:56.609Z,101191.69
2023-05-03T05:18:28.251Z,101192.63
2023-05-03T05:18:59.971Z,101190.53
2023-05-03T05:19:31.352Z,101193.22
2023-05-03T05:20:02.864Z,101197.44
2023-05-03T05:20:34.447Z,101200.75
2023-05-03T05:21:05.805Z,101194.28
2023-05-03T05:21:37.176Z,101197.59
2023-05-03T05:22:08.609Z,101200.53
2023-05-03T05:22:39.983Z,101200.06
2023-05-03T05:23:11.395Z,101204.28
2023-05-03T05:23:42.800Z,101196.63
2023-05-03T05:24:14.140Z,101201.34
2023-05-03T05:24:45.485Z,101198.72
2023-05-03T05:25:16.893Z,101201.81
2023-05-03T05:25:48.276Z,101206.53
2023-05-03T05:26:19.725Z,101199.25
2023-05-03T05:26:51.112Z,101207.94
2023-05-03T05:27:23.651Z,101194.66
2023-05-03T05:27:55.218Z,101200.91
2023-05-03T05:28:26.617Z,101204.16
2023-05-03T05:28:58.076Z,101203.00
2023-05-03T05:29:29.437Z,101210.19
2023-05-03T05:30:00.964Z,101203.91
2023-05-03T05:30:32.577Z,101210.63
2023-05-03T05:31:03.952Z,101204.66
2023-05-03T05:31:35.437Z,101207.94
2023-05-03T05:32:06.897Z,101208.06
2023-05-03T05:32:38.541Z,101212.41
2023-05-03T05:33:10.068Z,101217.72
2023-05-03T05:33:41.486Z,101210.63
2023-05-03T05:34:12.855Z,101217.03
2023-05-03T05:34:45.074Z,101213.13
2023-05-03T05:35:16.839Z,101209.59
2023-05-03T05:35:48.264Z,101210.41
2023-05-03T05:36:19.786Z,101216.88
2023-05-03T05:36:51.294Z,101215.94
2023-05-03T05:37:22.693Z,101215.50
2023-05-03T05:37:54.142Z,101217.13
2023-05-03T05:38:25.515Z,101215.81
2023-05-03T05:38:57.011Z,101214.78
2023-05-03T05:39:28.400Z,101219.59
2023-05-03T05:39:59.808Z,101219.13
2023-05-03T05:40:31.195Z,101221.59
2023-05-03T05:41:04.558Z,101216.78
2023-05-03T05:41:36.643Z,101218.91
2023-05-03T05:42:08.044Z,101217.03
2023-05-03T05:42:39.476Z,101213.72
2023-05-03T05:43:11.075Z,101220.41
2023-05-03T05:43:42.557Z,101217.03
2023-05-03T05:44:13.918Z,101219.72
2023-05-03T05:44:45.318Z,101219.50
2023-05-03T05:45:16.709Z,101212.66
2023-05-03T05:45:48.092Z,101221.59
2023-05-03T05:46:19.490Z,101216.44
2023-05-03T05:46:50.986Z,101220.91
2023-05-03T05:47:22.417Z,101211.84
2023-05-03T05:47:53.868Z,101222.91
2023-05-03T05:48:25.318Z,101225.25
2023-05-03T05:48:56.716Z,101226.19
2023-05-03T05:49:28.320Z,101225.59
2023-05-03T05:49:59.807Z,101234.09
2023-05-03T05:50:31.350Z,101241.50
2023-05-03T05:51:02.731Z,101226.53
2023-05-03T05:51:34.195Z,101231.63
2023-05-03T05:52:05.618Z,101235.50
2023-05-03T05:52:37.014Z,101232.91
2023-05-03T05:53:08.383Z,101234.56
2023-05-03T05:53:39.740Z,101232.78
2023-05-03T05:54:11.121Z,101231.72
2023-05-03T05:54:42.535Z,101240.19
2023-05-03T05:55:13.881Z,101229.38
2023-05-03T05:55:45.298Z,101233.84
2023-05-03T05:56:16.687Z,101229.25
2023-05-03T05:56:48.091Z,101233.63
2023-05-03T05:57:19.499Z,101240.44
2023-05-03T05:57:50.861Z,101243.50
2023-05-03T05:58:22.250Z,101234.09
2023-05-03T05:58:53.675Z,101243.06
2023-05-03T05:59:25.058Z,101239.38